createdAt,value
2022-10-29T00:01:56.246Z,17.54
2022-10-29T00:04:24.392Z,17.54
2022-10-29T00:06:52.507Z,17.55
2022-10-29T00:09:22.000Z,17.55
2022-10-29T00:11:50.119Z,17.61
2022-10-29T00:14:18.534Z,17.57
2022-10-29T00:16:46.762Z,17.55
2022-10-29T00:19:14.976Z,17.52
2022-10-29T00:21:43.108Z,17.53
2022-10-29T00:24:11.464Z,17.44
2022-10-29T00:26:40.997Z,17.33
2022-10-29T00:29:09.386Z,17.22
2022-10-29T00:31:37.560Z,17.28
2022-10-29T00:34:05.743Z,17.31
2022-10-29T00:36:33.889Z,17.28
2022-10-29T00:39:01.990Z,17.18
2022-10-29T00:41:30.851Z,17.14
2022-10-29T00:44:27.211Z,17.19
2022-10-29T00:46:57.550Z,17.25
2022-10-29T00:49:25.894Z,17.22
2022-10-29T00:51:53.991Z,17.23
2022-10-29T00:54:22.151Z,17.26
2022-10-29T00:56:51.929Z,17.19
2022-10-29T00:59:20.333Z,17.07
2022-10-29T01:01:49.998Z,16.99
2022-10-29T01:04:18.441Z,16.92
2022-10-29T01:06:47.257Z,16.92
2022-10-29T01:09:15.612Z,16.87
2022-10-29T01:11:48.251Z,16.85
2022-10-29T01:14:20.422Z,16.81
2022-10-29T01:16:52.609Z,16.77
2022-10-29T01:19:25.467Z,16.71
2022-10-29T01:21:54.129Z,16.78
2022-10-29T01:24:35.506Z,16.78
2022-10-29T01:27:39.523Z,16.84
2022-10-29T01:30:12.104Z,16.78
2022-10-29T01:32:46.905Z,16.70
2022-10-29T01:35:18.094Z,16.59
2022-10-29T01:37:50.166Z,16.52
2022-10-29T01:40:20.071Z,16.43
2022-10-29T01:42:49.938Z,16.40
2022-10-29T01:45:19.222Z,16.37
2022-10-29T01:47:50.642Z,16.42
2022-10-29T01:50:20.104Z,16.48
2022-10-29T01:52:48.766Z,16.53
2022-10-29T01:55:17.867Z,16.45
2022-10-29T01:57:45.974Z,16.43
2022-10-29T02:00:15.877Z,16.34
2022-10-29T02:02:50.941Z,16.34
2022-10-29T02:05:23.455Z,16.31
2022-10-29T02:07:52.357Z,16.34
2022-10-29T02:10:28.143Z,16.26
2022-10-29T02:12:56.569Z,16.18
2022-10-29T02:15:26.696Z,16.09
2022-10-29T02:18:00.271Z,16.10
2022-10-29T02:20:28.373Z,16.11
2022-10-29T02:22:56.548Z,16.09
2022-10-29T02:25:24.882Z,16.08
2022-10-29T02:27:53.391Z,16.02
2022-10-29T02:30:21.965Z,16.01
2022-10-29T02:32:50.139Z,15.97
2022-10-29T02:35:19.718Z,15.96
2022-10-29T02:37:47.877Z,15.86
2022-10-29T02:40:16.135Z,15.73
2022-10-29T02:42:44.315Z,15.71
2022-10-29T02:45:12.728Z,15.72
2022-10-29T02:47:40.868Z,15.69
2022-10-29T02:50:10.256Z,15.74
2022-10-29T02:52:39.837Z,15.78
2022-10-29T02:55:08.628Z,15.78
2022-10-29T02:57:36.974Z,15.70
2022-10-29T03:00:05.883Z,15.62
2022-10-29T03:02:34.507Z,15.59
2022-10-29T03:05:02.757Z,15.53
2022-10-29T03:07:30.959Z,15.50
2022-10-29T03:10:00.525Z,15.36
2022-10-29T03:12:28.918Z,15.32
2022-10-29T03:14:57.125Z,15.43
2022-10-29T03:17:25.263Z,15.50
2022-10-29T03:19:53.370Z,15.35
2022-10-29T03:22:21.503Z,15.18
2022-10-29T03:24:49.604Z,15.03
2022-10-29T03:27:19.365Z,14.88
2022-10-29T03:29:47.478Z,14.71
2022-10-29T03:32:15.708Z,14.65
2022-10-29T03:34:43.844Z,14.57
2022-10-29T03:37:11.916Z,14.57
2022-10-29T03:39:40.379Z,14.63
2022-10-29T03:42:08.518Z,14.69
2022-10-29T03:44:40.066Z,14.71
2022-10-29T03:47:11.342Z,14.82
2022-10-29T03:49:40.520Z,14.89
2022-10-29T03:52:08.668Z,14.83
2022-10-29T03:54:37.071Z,14.74
2022-10-29T03:57:05.236Z,14.76
2022-10-29T03:59:33.332Z,14.65
2022-10-29T04:02:02.998Z,14.52
2022-10-29T04:04:31.256Z,14.31
2022-10-29T04:06:59.369Z,14.08
2022-10-29T04:09:27.783Z,13.93
2022-10-29T04:11:55.887Z,13.84
2022-10-29T04:14:24.148Z,13.75
2022-10-29T04:16:52.271Z,13.69
2022-10-29T04:19:21.896Z,13.63
2022-10-29T04:30:14.921Z,13.33
2022-10-29T04:32:43.087Z,13.27
2022-10-29T04:35:12.908Z,13.24
2022-10-29T04:37:41.039Z,13.18
2022-10-29T04:40:10.358Z,13.17
2022-10-29T04:42:38.542Z,13.11
2022-10-29T04:45:07.733Z,13.07
2022-10-29T04:47:35.969Z,12.99
2022-10-29T04:50:04.632Z,12.92
2022-10-29T04:52:34.146Z,12.80
2022-10-29T04:55:02.357Z,12.72
2022-10-29T04:57:30.481Z,12.67
2022-10-29T04:59:58.592Z,12.64
2022-10-29T05:02:26.957Z,12.60
2022-10-29T05:04:55.080Z,12.56
2022-10-29T05:07:23.264Z,12.54
2022-10-29T05:09:52.860Z,12.51
2022-10-29T05:12:20.946Z,12.43
2022-10-29T05:14:49.140Z,12.44
2022-10-29T05:17:17.545Z,12.43
2022-10-29T05:19:45.956Z,12.42
2022-10-29T05:22:14.109Z,12.37
2022-10-29T05:24:42.227Z,12.30
2022-10-29T05:27:11.679Z,12.26
2022-10-29T05:29:39.779Z,12.22
2022-10-29T05:32:07.896Z,12.14
2022-10-29T05:34:38.378Z,12.09
2022-10-29T05:37:07.625Z,12.07
2022-10-29T05:39:35.751Z,12.09
2022-10-29T05:42:03.902Z,12.17
2022-10-29T05:44:33.985Z,12.25
2022-10-29T05:47:02.237Z,12.58
2022-10-29T05:49:30.331Z,12.99
2022-10-29T05:51:58.506Z,13.34
2022-10-29T05:54:26.595Z,13.55
2022-10-29T05:56:54.697Z,13.81
2022-10-29T05:59:23.091Z,13.94
2022-10-29T06:01:52.739Z,14.01
2022-10-29T06:04:21.073Z,13.92
2022-10-29T06:06:49.279Z,13.93
2022-10-29T06:09:17.515Z,14.05
2022-10-29T06:11:45.871Z,14.13
2022-10-29T06:14:13.974Z,14.13
2022-10-29T06:16:42.846Z,14.13
2022-10-29T06:19:12.331Z,14.08
2022-10-29T06:21:40.444Z,14.03
2022-10-29T06:24:10.375Z,14.01
2022-10-29T06:26:38.519Z,14.03
2022-10-29T06:29:06.625Z,14.13
2022-10-29T06:31:34.759Z,14.13
2022-10-29T06:34:03.106Z,14.17
2022-10-29T06:36:32.602Z,14.11
2022-10-29T06:39:01.074Z,13.97
2022-10-29T06:41:29.180Z,13.86
2022-10-29T06:43:57.290Z,13.91
2022-10-29T06:46:25.501Z,14.08
2022-10-29T06:48:53.625Z,14.24
2022-10-29T06:53:57.488Z,14.64
2022-10-29T06:56:25.617Z,14.79
2022-10-29T06:58:53.739Z,15.00
2022-10-29T07:01:22.402Z,15.12
2022-10-29T07:03:51.759Z,15.22
2022-10-29T07:06:20.095Z,15.35
2022-10-29T07:08:48.164Z,15.43
2022-10-29T07:11:17.689Z,15.58
2022-10-29T07:13:45.811Z,15.68
2022-10-29T07:16:13.986Z,15.74
2022-10-29T07:18:42.370Z,15.80
2022-10-29T07:21:10.871Z,15.87
2022-10-29T07:23:38.950Z,15.99
2022-10-29T07:26:07.286Z,16.06
2022-10-29T07:28:36.799Z,16.09
2022-10-29T07:31:04.948Z,16.20
2022-10-29T07:33:33.051Z,16.24
2022-10-29T07:36:01.159Z,16.29
2022-10-29T07:38:29.286Z,16.36
2022-10-29T07:40:57.391Z,16.41
2022-10-29T07:43:25.474Z,16.42
2022-10-29T07:45:55.293Z,16.41
2022-10-29T07:48:23.389Z,16.40
2022-10-29T07:50:51.484Z,16.38
2022-10-29T07:53:19.527Z,16.33
2022-10-29T07:55:53.568Z,16.34
2022-10-29T07:58:22.040Z,16.33
2022-10-29T08:00:50.218Z,16.34
2022-10-29T08:03:20.071Z,16.39
2022-10-29T08:05:55.396Z,16.46
2022-10-29T08:08:24.528Z,16.57
2022-10-29T08:10:52.661Z,16.73
2022-10-29T08:13:21.099Z,16.85
2022-10-29T08:15:49.226Z,17.05
2022-10-29T08:18:19.115Z,17.20
2022-10-29T08:20:47.259Z,17.25
2022-10-29T08:23:15.535Z,17.29
2022-10-29T08:25:44.175Z,17.28
2022-10-29T08:28:13.133Z,17.26
2022-10-29T08:30:41.472Z,17.36
2022-10-29T08:33:10.783Z,17.57
2022-10-29T08:35:40.308Z,17.73
2022-10-29T08:38:08.440Z,17.88
2022-10-29T08:40:40.833Z,18.00
2022-10-29T08:43:33.873Z,18.17
2022-10-29T08:46:01.992Z,18.34
2022-10-29T08:48:36.318Z,18.46
2022-10-29T08:51:09.236Z,18.61
2022-10-29T08:53:38.453Z,18.71
2022-10-29T08:56:08.296Z,18.84
2022-10-29T08:58:37.532Z,18.98
2022-10-29T09:01:10.940Z,19.11
2022-10-29T09:03:39.226Z,19.30
2022-10-29T09:06:11.657Z,19.45
2022-10-29T09:08:58.050Z,19.63
2022-10-29T09:11:34.482Z,19.73
2022-10-29T09:14:09.624Z,19.91
2022-10-29T09:16:43.492Z,19.99
2022-10-29T09:19:22.277Z,20.06
2022-10-29T09:21:56.955Z,20.23
2022-10-29T09:24:28.571Z,20.26
2022-10-29T09:26:58.882Z,20.23
2022-10-29T09:29:52.855Z,20.45
2022-10-29T09:32:22.872Z,20.43
2022-10-29T09:34:51.909Z,20.43
2022-10-29T09:37:22.763Z,20.24
2022-10-29T09:39:50.903Z,20.21
2022-10-29T09:42:20.949Z,20.10
2022-10-29T09:44:51.785Z,19.96
2022-10-29T09:47:26.710Z,19.95
2022-10-29T09:50:05.383Z,19.91
2022-10-29T09:52:40.536Z,19.86
2022-10-29T09:55:11.563Z,20.02
2022-10-29T09:57:39.661Z,20.21
2022-10-29T10:00:09.175Z,20.41
2022-10-29T10:02:44.253Z,20.59
2022-10-29T10:05:17.413Z,20.88
2022-10-29T10:07:48.476Z,21.22
2022-10-29T10:10:22.091Z,21.44
2022-10-29T10:12:50.688Z,21.59
2022-10-29T10:15:21.140Z,21.51
2022-10-29T10:18:00.672Z,21.46
2022-10-29T10:20:37.457Z,21.36
2022-10-29T10:23:22.918Z,21.61
2022-10-29T10:25:51.228Z,21.92
2022-10-29T10:28:21.237Z,22.19
2022-10-29T10:31:09.120Z,22.40
2022-10-29T10:33:38.290Z,22.67
2022-10-29T10:36:07.570Z,23.01
2022-10-29T10:38:41.551Z,23.32
2022-10-29T10:41:10.514Z,23.18
2022-10-29T10:43:38.931Z,23.05
2022-10-29T10:46:11.363Z,22.89
2022-10-29T10:48:39.447Z,22.75
2022-10-29T10:51:12.020Z,22.60
2022-10-29T10:53:41.914Z,22.55
2022-10-29T10:56:17.287Z,22.43
2022-10-29T10:58:48.334Z,22.36
2022-10-29T11:01:18.995Z,22.19
2022-10-29T11:03:50.147Z,22.06
2022-10-29T11:06:20.994Z,21.89
2022-10-29T11:08:52.391Z,21.74
2022-10-29T11:11:22.168Z,21.68
2022-10-29T11:13:50.651Z,21.58
2022-10-29T11:16:22.219Z,21.62
2022-10-29T11:18:52.565Z,21.56
2022-10-29T11:21:22.572Z,21.51
2022-10-29T11:24:00.147Z,21.51
2022-10-29T11:26:31.484Z,21.54
2022-10-29T11:29:02.038Z,21.46
2022-10-29T11:31:33.583Z,21.45
2022-10-29T11:34:04.938Z,21.39
2022-10-29T11:36:36.276Z,21.26
2022-10-29T11:39:10.263Z,21.11
2022-10-29T11:41:42.209Z,21.01
2022-10-29T11:44:11.163Z,20.89
2022-10-29T11:46:42.802Z,20.78
2022-10-29T11:49:20.779Z,20.67
2022-10-29T11:51:52.964Z,20.62
2022-10-29T11:54:38.988Z,20.51
2022-10-29T11:57:11.308Z,20.45
2022-10-29T11:59:44.586Z,20.52
2022-10-29T12:02:22.805Z,20.58
2022-10-29T12:04:55.250Z,20.61
2022-10-29T12:07:28.557Z,20.72
2022-10-29T12:10:16.045Z,20.76
2022-10-29T12:12:46.941Z,20.86
2022-10-29T12:15:19.817Z,21.01
2022-10-29T12:17:50.646Z,21.09
2022-10-29T12:20:23.443Z,21.11
2022-10-29T12:23:02.557Z,21.20
2022-10-29T12:25:40.068Z,21.17
2022-10-29T12:28:19.603Z,21.20
2022-10-29T12:30:55.611Z,21.22
2022-10-29T12:33:25.498Z,21.20
2022-10-29T12:35:56.325Z,21.24
2022-10-29T12:38:31.695Z,21.25
2022-10-29T12:41:04.031Z,21.27
2022-10-29T12:43:32.895Z,21.26
2022-10-29T12:46:21.079Z,21.23
2022-10-29T12:48:54.718Z,21.17
2022-10-29T12:51:25.848Z,21.18
2022-10-29T12:54:13.978Z,21.10
2022-10-29T12:56:46.301Z,21.03
2022-10-29T12:59:32.550Z,20.89
2022-10-29T13:02:45.130Z,20.78
2022-10-29T13:05:38.844Z,20.67
2022-10-29T13:08:28.912Z,20.62
2022-10-29T13:10:57.450Z,20.57
2022-10-29T13:13:53.665Z,20.53
2022-10-29T13:16:23.086Z,20.56
2022-10-29T13:18:57.987Z,20.61
2022-10-29T13:22:02.790Z,20.65
2022-10-29T13:24:31.009Z,20.65
2022-10-29T13:27:04.235Z,20.64
2022-10-29T13:29:47.972Z,20.62
2022-10-29T13:32:33.885Z,20.59
2022-10-29T13:35:02.217Z,20.55
2022-10-29T13:37:40.508Z,20.54
2022-10-29T13:40:42.664Z,20.54
2022-10-29T13:43:13.531Z,20.49
2022-10-29T13:45:44.349Z,20.46
2022-10-29T13:48:15.730Z,20.48
2022-10-29T13:50:43.854Z,20.49
2022-10-29T13:53:13.654Z,20.48
2022-10-29T13:55:44.419Z,20.44
2022-10-29T13:58:14.575Z,20.44
2022-10-29T14:00:44.164Z,20.40
2022-10-29T14:03:15.190Z,20.40
2022-10-29T14:05:44.196Z,20.36
2022-10-29T14:08:13.641Z,20.35
2022-10-29T14:10:45.034Z,20.32
2022-10-29T14:13:23.497Z,20.29
2022-10-29T14:16:04.571Z,20.26
2022-10-29T14:18:32.999Z,20.22
2022-10-29T14:21:02.132Z,20.20
2022-10-29T14:23:30.852Z,20.14
2022-10-29T14:26:00.130Z,20.10
2022-10-29T14:28:30.077Z,20.06
2022-10-29T14:31:04.364Z,20.01
2022-10-29T14:33:33.438Z,19.98
2022-10-29T14:36:06.180Z,19.90
2022-10-29T14:38:38.084Z,19.81
2022-10-29T14:41:06.353Z,19.74
2022-10-29T14:43:35.081Z,19.68
2022-10-29T14:46:24.326Z,19.58
2022-10-29T14:48:59.184Z,19.51
2022-10-29T14:51:28.654Z,19.45
2022-10-29T14:53:59.342Z,19.39
2022-10-29T14:56:33.800Z,19.30
2022-10-29T14:59:03.271Z,19.22
2022-10-29T15:01:33.260Z,19.14
2022-10-29T15:04:02.105Z,19.08
2022-10-29T15:06:30.738Z,18.96
2022-10-29T15:08:59.682Z,18.86
2022-10-29T15:11:48.851Z,18.81
2022-10-29T15:17:02.155Z,18.68
2022-10-29T15:19:30.732Z,18.53
2022-10-29T15:21:58.942Z,18.37
2022-10-29T15:24:27.029Z,18.26
2022-10-29T15:26:57.390Z,18.20
2022-10-29T15:29:32.221Z,18.16
2022-10-29T15:32:03.695Z,18.18
2022-10-29T15:34:33.355Z,18.09
2022-10-29T15:37:15.651Z,17.97
2022-10-29T15:40:06.029Z,17.86
2022-10-29T15:42:35.279Z,17.74
2022-10-29T15:45:27.844Z,17.69
2022-10-29T15:48:29.671Z,17.52
2022-10-29T15:50:58.623Z,17.39
2022-10-29T15:53:26.759Z,17.32
2022-10-29T15:55:54.830Z,17.24
2022-10-29T15:58:23.920Z,17.19
2022-10-29T16:00:52.079Z,17.16
2022-10-29T16:03:22.619Z,17.29
2022-10-29T16:05:51.393Z,17.29
2022-10-29T16:08:24.164Z,17.20
2022-10-29T16:10:52.466Z,17.19
2022-10-29T16:13:20.734Z,17.20
2022-10-29T16:15:48.886Z,17.19
2022-10-29T16:18:17.257Z,17.22
2022-10-29T16:20:47.124Z,17.28
2022-10-29T16:23:15.287Z,17.39
2022-10-29T16:25:43.664Z,17.44
2022-10-29T16:28:12.112Z,17.42
2022-10-29T16:33:16.336Z,17.37
2022-10-29T16:35:50.131Z,17.38
2022-10-29T16:38:19.550Z,17.29
2022-10-29T16:40:47.761Z,17.26
2022-10-29T16:43:16.284Z,17.19
2022-10-29T16:45:44.507Z,17.14
2022-10-29T16:48:12.803Z,17.09
2022-10-29T16:50:40.923Z,17.02
2022-10-29T16:53:11.238Z,16.94
2022-10-29T16:55:39.969Z,16.81
2022-10-29T16:58:08.076Z,16.73
2022-10-29T17:00:36.871Z,16.60
2022-10-29T17:03:08.335Z,16.52
2022-10-29T17:05:39.880Z,16.43
2022-10-29T17:08:08.265Z,16.32
2022-10-29T17:10:37.796Z,16.24
2022-10-29T17:13:07.117Z,16.16
2022-10-29T17:15:35.218Z,16.08
2022-10-29T17:18:03.416Z,16.00
2022-10-29T17:20:31.782Z,15.94
2022-10-29T17:22:59.867Z,15.86
2022-10-29T17:25:27.970Z,15.78
2022-10-29T17:27:57.759Z,15.72
2022-10-29T17:30:26.214Z,15.68
2022-10-29T17:32:54.433Z,15.63
2022-10-29T17:35:22.639Z,15.56
2022-10-29T17:37:50.810Z,15.47
2022-10-29T17:40:18.982Z,15.43
2022-10-29T17:42:47.063Z,15.37
2022-10-29T17:45:20.419Z,15.32
2022-10-29T17:47:49.146Z,15.26
2022-10-29T17:50:17.466Z,15.20
2022-10-29T17:52:45.613Z,15.16
2022-10-29T17:55:13.726Z,15.12
2022-10-29T17:57:41.841Z,15.07
2022-10-29T18:00:11.354Z,15.05
2022-10-29T18:02:41.473Z,15.08
2022-10-29T18:05:09.881Z,15.08
2022-10-29T18:07:38.767Z,15.05
2022-10-29T18:10:07.935Z,15.01
2022-10-29T18:12:36.007Z,15.00
2022-10-29T18:15:04.447Z,14.97
2022-10-29T18:17:33.085Z,14.95
2022-10-29T18:20:02.752Z,14.92
2022-10-29T18:22:30.846Z,14.91
2022-10-29T18:24:58.929Z,14.91
2022-10-29T18:27:27.029Z,14.86
2022-10-29T18:29:55.418Z,14.82
2022-10-29T18:32:23.538Z,14.78
2022-10-29T18:34:51.751Z,14.75
2022-10-29T18:37:21.356Z,14.75
2022-10-29T18:39:49.497Z,14.73
2022-10-29T18:42:17.878Z,14.70
2022-10-29T18:44:45.991Z,14.67
2022-10-29T18:47:14.162Z,14.68
2022-10-29T18:49:42.276Z,14.64
2022-10-29T18:52:10.427Z,14.61
2022-10-29T18:54:40.898Z,14.60
2022-10-29T18:57:09.380Z,14.57
2022-10-29T18:59:38.456Z,14.54
2022-10-29T19:02:06.796Z,14.52
2022-10-29T19:04:34.979Z,14.49
2022-10-29T19:07:03.131Z,14.44
2022-10-29T19:09:31.760Z,14.43
2022-10-29T19:12:01.241Z,14.40
2022-10-29T19:14:29.412Z,14.37
2022-10-29T19:16:57.537Z,14.34
2022-10-29T19:19:25.647Z,14.38
2022-10-29T19:21:53.708Z,14.41
2022-10-29T19:24:22.108Z,14.37
2022-10-29T19:26:50.257Z,14.30
2022-10-29T19:29:19.772Z,14.31
2022-10-29T19:31:48.174Z,14.32
2022-10-29T19:34:16.342Z,14.35
2022-10-29T19:36:45.407Z,14.35
2022-10-29T19:39:13.553Z,14.34
2022-10-29T19:41:41.671Z,14.33
2022-10-29T19:44:10.039Z,14.30
2022-10-29T19:46:39.540Z,14.29
2022-10-29T19:49:07.763Z,14.30
2022-10-29T19:51:36.157Z,14.29
2022-10-29T19:54:05.376Z,14.29
2022-10-29T19:56:33.536Z,14.25
2022-10-29T19:59:01.668Z,14.24
2022-10-29T20:01:30.024Z,14.21
2022-10-29T20:03:59.708Z,14.18
2022-10-29T20:06:28.111Z,14.16
2022-10-29T20:08:56.192Z,14.18
2022-10-29T20:11:24.292Z,14.16
2022-10-29T20:13:52.452Z,14.15
2022-10-29T20:16:21.262Z,14.13
2022-10-29T20:18:49.663Z,14.10
2022-10-29T20:21:19.492Z,14.07
2022-10-29T20:23:47.634Z,14.07
2022-10-29T20:26:15.749Z,14.08
2022-10-29T20:28:43.860Z,14.06
2022-10-29T20:31:27.840Z,14.04
2022-10-29T20:33:58.788Z,14.03
2022-10-29T20:36:29.309Z,13.99
2022-10-29T20:38:57.724Z,13.97
2022-10-29T20:41:25.922Z,13.97
2022-10-29T20:43:54.229Z,13.96
2022-10-29T20:46:22.700Z,13.95
2022-10-29T20:48:50.781Z,13.94
2022-10-29T20:51:18.867Z,13.91
2022-10-29T20:53:48.398Z,13.88
2022-10-29T20:56:16.904Z,13.83
2022-10-29T20:58:45.183Z,13.81
2022-10-29T21:01:14.527Z,13.83
2022-10-29T21:03:42.930Z,13.82
2022-10-29T21:06:13.960Z,13.79
2022-10-29T21:08:44.981Z,13.78
2022-10-29T21:11:15.076Z,13.79
2022-10-29T21:13:43.710Z,13.79
2022-10-29T21:16:15.073Z,13.78
2022-10-29T21:18:44.012Z,13.79
2022-10-29T21:21:12.140Z,13.81
2022-10-29T21:23:40.485Z,13.81
2022-10-29T21:26:10.702Z,13.81
2022-10-29T21:28:41.539Z,13.79
2022-10-29T21:31:09.679Z,13.79
2022-10-29T21:33:37.813Z,13.79
2022-10-29T21:36:06.247Z,13.84
2022-10-29T21:38:34.428Z,13.86
2022-10-29T21:41:03.136Z,13.86
2022-10-29T21:43:31.296Z,13.84
2022-10-29T21:46:00.882Z,13.88
2022-10-29T21:48:29.198Z,13.90
2022-10-29T21:51:02.075Z,13.88
2022-10-29T21:53:30.587Z,13.90
2022-10-29T21:55:58.853Z,13.88
2022-10-29T21:58:27.083Z,13.88
2022-10-29T22:01:04.711Z,13.88
2022-10-29T22:03:33.367Z,13.85
2022-10-29T22:06:05.865Z,13.83
2022-10-29T22:08:34.143Z,13.81
2022-10-29T22:11:02.267Z,13.77
2022-10-29T22:13:30.483Z,13.79
2022-10-29T22:15:58.887Z,13.80
2022-10-29T22:18:28.563Z,13.79
2022-10-29T22:21:09.971Z,13.75
2022-10-29T22:23:38.908Z,13.75
2022-10-29T22:26:07.024Z,13.74
2022-10-29T22:28:35.103Z,13.74
2022-10-29T22:31:03.620Z,13.72
2022-10-29T22:33:34.231Z,13.68
2022-10-29T22:36:07.223Z,13.65
2022-10-29T22:38:35.354Z,13.62
2022-10-29T22:41:07.827Z,13.58
2022-10-29T22:43:36.080Z,13.54
2022-10-29T22:46:05.135Z,13.50
2022-10-29T22:48:34.752Z,13.46
2022-10-29T22:51:03.405Z,13.39
2022-10-29T22:53:31.579Z,13.29
2022-10-29T22:55:59.796Z,13.19
2022-10-29T22:58:27.891Z,13.11
2022-10-29T23:01:03.377Z,13.01
2022-10-29T23:03:31.590Z,12.96
2022-10-29T23:06:01.561Z,12.93
2022-10-29T23:08:29.817Z,12.87
2022-10-29T23:10:58.010Z,12.79
2022-10-29T23:13:26.403Z,12.75
2022-10-29T23:15:54.633Z,12.64
2022-10-29T23:18:22.828Z,12.62
2022-10-29T23:20:58.299Z,12.60
2022-10-29T23:23:28.072Z,12.55
2022-10-29T23:26:00.754Z,12.49
2022-10-29T23:28:29.149Z,12.47
2022-10-29T23:30:57.861Z,12.44
2022-10-29T23:33:26.017Z,12.40
2022-10-29T23:35:54.159Z,12.37
2022-10-29T23:38:22.399Z,12.36
2022-10-29T23:40:52.140Z,12.34
2022-10-29T23:43:20.314Z,12.35
2022-10-29T23:45:48.442Z,12.34
2022-10-29T23:48:16.541Z,12.33
2022-10-29T23:50:44.695Z,12.34
2022-10-29T23:53:13.401Z,12.36
2022-10-29T23:55:42.888Z,12.41
2022-10-29T23:58:12.770Z,12.45
